This is the latest recevied weather packets stored in our database for station/object N5PLO-10. If no packets are shown the sender has not sent any weather packets the latest 10 day(s).
| Time | Temp. | Humidity | Pressure | Rain* | Wind** | Luminosity | Snow |
|---|---|---|---|---|---|---|---|
| 1777590166 | 22.78° C | 85% | - | 0 mm | - | - | - |
| 1777589862 | 22.78° C | 85% | - | 0 mm | - | - | - |
| 1777589557 | 22.78° C | 85% | - | 0 mm | - | - | - |
| 1777589256 | 23.33° C | 84% | - | 0 mm | - | - | - |
| 1777588954 | 23.33° C | 84% | - | 0 mm | - | - | - |
| 1777588649 | 23.33° C | 84% | - | 0 mm | - | - | - |
| 1777588344 | 23.33° C | 84% | - | 0 mm | - | - | - |
| 1777588041 | 23.89° C | 83% | - | 0 mm | - | - | - |
| 1777587736 | 25° C | 80% | - | 0 mm | - | - | - |
| 1777587430 | 23.89° C | 83% | - | 0 mm | - | - | - |
| 1777587127 | 23.89° C | 83% | - | 0 mm | - | - | - |
| 1777586823 | 24.44° C | 81% | - | 0 mm | - | - | - |
| 1777586518 | 25° C | 81% | - | 0 mm | - | - | - |
| 1777586214 | 25° C | 80% | - | 0 mm | - | - | - |
| 1777585912 | 24.44° C | 82% | - | 0 mm | - | - | - |
| 1777585606 | 23.89° C | 84% | - | 0 mm | - | - | - |
| 1777585301 | 23.89° C | 85% | - | 0 mm | - | - | - |
| 1777584996 | 23.89° C | 84% | - | 0 mm | - | - | - |
| 1777584693 | 23.33° C | 85% | - | 0 mm | - | - | - |
| 1777584391 | 23.89° C | 84% | 1015.9 hPa | 0 mm | - | 183 W/m² | - |
| 1777584087 | 23.89° C | 83% | 1015.9 hPa | 0 mm | - | 122 W/m² | - |
| 1777583787 | 23.89° C | 83% | 1015.9 hPa | 0 mm | - | 126 W/m² | - |
| 1777583481 | 23.89° C | 83% | 1015.9 hPa | 0 mm | - | 111 W/m² | - |
| 1777583175 | 23.89° C | 83% | 1015.9 hPa | 0 mm | - | 108 W/m² | - |
| 1777582871 | 24.44° C | 82% | 1015.9 hPa | 0 mm | - | 98 W/m² | - |
* Rain latest hour (hover to see other rain measurements)
** Current wind speed in m/s (hover to see current wind gust speed)